Aviation Digital Data Service (ADDS)

Output produced by METARs form (0907 UTC 23 July 2019)
found at http://www.aviationweather.gov/metar/data/
 
Forecast for: EDDC (DRESDEN/KLOTZSCH, DE)
Text: TAF EDDC 230500Z 2306/2406 25005KT CAVOK
Forecast period: 0600 UTC 23 July 2019 to 0600 UTC 24 July 2019
Forecast type: FROM: standard forecast or significant change
Winds: from the WSW (250 degrees) at 6 MPH (5 knots; 2.6 m/s)
Visibility: 6 or more miles 10+ km)
Ceiling: unknown
Clouds: missing
Weather: NSW  (no significant weather)
Text: BECMG 2306/2309 31007KT
Forecast period: 0600 to 1700 UTC 23 July 2019
Forecast type: BECOMING: Conditions expected to become as follows by 0900 UTC 23 July 2019
Winds: from the NW (310 degrees) at 8 MPH (7 knots; 3.6 m/s)
Visibility: 6 or more miles 10+ km)
Ceiling: unknown
Clouds: missing
Weather: NSW  (no significant weather)
Text: BECMG 2317/2320 04005KT
Forecast period: 1700 UTC 23 July 2019 to 0600 UTC 24 July 2019
Forecast type: BECOMING: Conditions expected to become as follows by 2000 UTC 23 July 2019
Winds: from the NE (40 degrees) at 6 MPH (5 knots; 2.6 m/s)
Visibility: 6 or more miles 10+ km)
Ceiling: unknown
Clouds: missing
Weather: NSW  (no significant weather)